createdAt,value
2023-02-19T00:00:09.068Z,78847.34
2023-02-19T00:05:10.555Z,78847.34
2023-02-19T00:10:12.075Z,78851.34
2023-02-19T00:15:13.487Z,78845.34
2023-02-19T00:20:14.909Z,78849.34
2023-02-19T00:25:16.664Z,78855.38
2023-02-19T00:30:18.139Z,78855.38
2023-02-19T00:35:19.574Z,78847.34
2023-02-19T00:40:21.094Z,78847.34
2023-02-19T00:45:22.718Z,78845.34
2023-02-19T00:50:24.202Z,78845.34
2023-02-19T00:55:25.730Z,78847.34
2023-02-19T01:00:27.190Z,78853.38
2023-02-19T01:05:28.602Z,78843.34
2023-02-19T01:10:30.167Z,78837.31
2023-02-19T01:15:33.713Z,78829.28
2023-02-19T01:20:35.187Z,78825.28
2023-02-19T01:25:42.206Z,78823.28
2023-02-19T01:30:43.643Z,78821.28
2023-02-19T01:35:45.094Z,78821.28
2023-02-19T01:41:00.991Z,78817.25
2023-02-19T01:46:02.674Z,78817.25
2023-02-19T01:51:09.417Z,78823.28
2023-02-19T01:56:14.421Z,78825.28
2023-02-19T02:01:15.954Z,78829.28
2023-02-19T02:06:23.271Z,78831.31
2023-02-19T02:11:25.046Z,78827.28
2023-02-19T02:16:54.478Z,78839.31
2023-02-19T02:22:12.532Z,78833.31
2023-02-19T02:27:41.196Z,78843.34
2023-02-19T02:33:18.331Z,78855.38
2023-02-19T02:38:25.188Z,78849.34
2023-02-19T02:43:26.666Z,78863.38
2023-02-19T02:48:33.845Z,78867.41
2023-02-19T02:54:03.054Z,78875.41
2023-02-19T02:59:08.665Z,78883.44
2023-02-19T03:04:15.702Z,78895.47
2023-02-19T03:09:30.215Z,78907.50
2023-02-19T03:15:12.914Z,78921.53
2023-02-19T03:20:17.725Z,78927.56
2023-02-19T03:25:42.405Z,78937.59
2023-02-19T03:30:50.731Z,78945.63
2023-02-19T03:36:06.315Z,78957.66
2023-02-19T03:41:35.197Z,78973.69
2023-02-19T03:46:51.757Z,78991.75
2023-02-19T03:52:08.308Z,79009.78
2023-02-19T03:57:24.969Z,79007.78
2023-02-19T04:02:33.251Z,79019.81
2023-02-19T04:07:38.116Z,79043.88
2023-02-19T04:12:44.028Z,79055.91
2023-02-19T04:17:50.918Z,79082.00
2023-02-19T04:22:52.790Z,79104.06
2023-02-19T04:27:54.732Z,79116.09
2023-02-19T04:32:56.247Z,79130.13
2023-02-19T04:37:57.734Z,79152.19
2023-02-19T04:42:59.302Z,79162.22
2023-02-19T04:48:00.788Z,79172.25
2023-02-19T04:53:02.178Z,79192.28
2023-02-19T04:58:03.654Z,79210.34
2023-02-19T05:03:05.138Z,79226.38
2023-02-19T05:08:06.565Z,79242.44
2023-02-19T05:13:08.219Z,79252.47
2023-02-19T05:18:09.701Z,79270.50
2023-02-19T05:23:11.637Z,79280.53
2023-02-19T05:28:19.263Z,79296.59
2023-02-19T05:33:23.785Z,79312.63
2023-02-19T05:38:25.595Z,79320.66
2023-02-19T05:43:27.058Z,79330.69
2023-02-19T05:48:28.531Z,79328.69
2023-02-19T05:53:30.184Z,79330.69
2023-02-19T05:58:31.655Z,79330.69
2023-02-19T06:03:33.198Z,79332.69
2023-02-19T06:08:34.671Z,79322.66
2023-02-19T06:13:36.355Z,79328.69
2023-02-19T06:18:40.349Z,79334.69
2023-02-19T06:23:42.296Z,79356.75
2023-02-19T06:28:45.123Z,79366.78
2023-02-19T06:33:46.747Z,79376.81
2023-02-19T06:38:48.232Z,79376.81
2023-02-19T06:43:49.729Z,79378.81
2023-02-19T06:48:51.164Z,79406.91
2023-02-19T06:53:53.314Z,79426.97
2023-02-19T06:58:56.580Z,79436.97
2023-02-19T07:03:58.341Z,79457.03
2023-02-19T07:09:00.402Z,79473.09
2023-02-19T07:14:03.706Z,79475.09
2023-02-19T07:19:05.227Z,79483.13
2023-02-19T07:24:06.974Z,79481.09
2023-02-19T07:29:09.637Z,79481.09
2023-02-19T07:34:11.209Z,79471.09
2023-02-19T07:39:15.588Z,79441.00
2023-02-19T07:44:17.171Z,79422.94
2023-02-19T07:49:18.770Z,79234.41
2023-02-19T07:54:20.197Z,79172.25
2023-02-19T07:59:21.718Z,78987.72
2023-02-19T08:04:23.237Z,78891.47
2023-02-19T08:09:24.824Z,78811.25
2023-02-19T08:14:27.309Z,78903.50
2023-02-19T08:19:28.808Z,79009.78
2023-02-19T08:24:31.161Z,79057.91
2023-02-19T08:29:32.675Z,79110.06
2023-02-19T08:34:34.153Z,79039.88
2023-02-19T08:39:35.604Z,79069.94
2023-02-19T08:44:37.097Z,78995.75
2023-02-19T08:49:38.560Z,78875.41
2023-02-19T08:54:40.080Z,78825.28
2023-02-19T08:59:41.576Z,78779.16
2023-02-19T09:04:43.052Z,78845.34
2023-02-19T09:09:44.504Z,78769.13
2023-02-19T09:14:46.551Z,78263.81
2023-02-19T09:19:50.065Z,77848.75
2023-02-19T09:24:52.307Z,77868.81
2023-02-19T09:29:55.054Z,77963.03
2023-02-19T09:34:56.838Z,77858.78
2023-02-19T09:39:58.320Z,77696.38
2023-02-19T09:45:01.600Z,77630.22
2023-02-19T09:50:07.607Z,77507.94
2023-02-19T09:55:24.039Z,77449.81
2023-02-19T10:00:28.975Z,77471.84
2023-02-19T10:05:32.526Z,77363.59
2023-02-19T10:10:36.769Z,77185.19
2023-02-19T10:15:45.807Z,77096.97
2023-02-19T10:20:49.634Z,76994.75
2023-02-19T10:25:57.033Z,76792.31
2023-02-19T10:31:00.702Z,77064.91
2023-02-19T10:36:07.925Z,76916.56
2023-02-19T10:41:17.540Z,77429.75
2023-02-19T10:46:24.122Z,77656.28
2023-02-19T10:51:35.773Z,77822.69
2023-02-19T10:56:38.576Z,77536.00
2023-02-19T11:01:58.818Z,77062.91
2023-02-19T11:07:18.066Z,77125.03
2023-02-19T11:12:31.837Z,76854.44
2023-02-19T11:17:33.346Z,76569.81
2023-02-19T11:22:40.237Z,76780.28
2023-02-19T11:28:03.061Z,76960.69
2023-02-19T11:33:16.493Z,76812.34
2023-02-19T11:38:19.415Z,76954.66
2023-02-19T11:43:39.637Z,76666.03
2023-02-19T11:49:03.440Z,76539.75
2023-02-19T11:54:34.208Z,76756.22
2023-02-19T11:59:47.796Z,76645.97
2023-02-19T12:05:04.149Z,76535.75
2023-02-19T12:10:28.406Z,76609.91
2023-02-19T12:15:48.462Z,76944.63
2023-02-19T12:20:55.680Z,76922.59
2023-02-19T12:26:18.902Z,77133.06
2023-02-19T12:31:42.936Z,77189.19
2023-02-19T12:37:02.384Z,77299.44
2023-02-19T12:42:34.940Z,77129.06
2023-02-19T12:47:40.261Z,77373.63
2023-02-19T12:52:46.292Z,77369.63
2023-02-19T12:57:48.618Z,77321.50
2023-02-19T13:02:59.909Z,77203.22
2023-02-19T13:08:07.643Z,77473.84
2023-02-19T13:13:41.986Z,77706.41
2023-02-19T13:18:48.751Z,77632.22
2023-02-19T13:23:59.430Z,77692.38
2023-02-19T13:29:21.931Z,77692.38
2023-02-19T13:34:41.466Z,77828.72
2023-02-19T13:39:49.931Z,77870.81
2023-02-19T13:44:57.745Z,77706.41
2023-02-19T13:50:07.771Z,77544.03
2023-02-19T13:55:47.187Z,77540.00
2023-02-19T14:00:50.938Z,77584.13
2023-02-19T14:06:06.309Z,77680.34
2023-02-19T14:11:08.734Z,77806.66
2023-02-19T14:16:29.003Z,77856.78
2023-02-19T14:21:38.899Z,77870.81
2023-02-19T14:26:41.434Z,77965.06
2023-02-19T14:31:45.837Z,78149.50
2023-02-19T14:36:51.778Z,78111.41
2023-02-19T14:41:58.341Z,78271.81
2023-02-19T14:47:02.684Z,78295.88
2023-02-19T14:52:10.071Z,78317.94
2023-02-19T14:57:25.924Z,78380.09
2023-02-19T15:02:30.088Z,78464.31
2023-02-19T15:07:33.849Z,78508.44
2023-02-19T15:13:01.313Z,78554.56
2023-02-19T15:18:05.513Z,78604.69
2023-02-19T15:23:07.983Z,78634.78
2023-02-19T15:28:25.131Z,78662.84
2023-02-19T15:33:28.048Z,78680.91
2023-02-19T15:38:29.912Z,78710.97
2023-02-19T15:43:31.426Z,78723.00
2023-02-19T15:49:22.284Z,78769.13
2023-02-19T15:54:27.004Z,78769.13
2023-02-19T15:59:36.515Z,78765.13
2023-02-19T16:04:38.930Z,78787.19
2023-02-19T16:09:40.370Z,78809.25
2023-02-19T16:14:41.831Z,78843.34
2023-02-19T16:19:43.584Z,78853.38
2023-02-19T16:24:51.558Z,78859.38
2023-02-19T16:29:53.292Z,78889.47
2023-02-19T16:34:54.788Z,78895.47
2023-02-19T16:40:16.867Z,78913.53
2023-02-19T16:45:18.683Z,78919.53
2023-02-19T16:50:23.152Z,78925.56
2023-02-19T16:55:25.609Z,78927.56
2023-02-19T17:00:29.621Z,78945.63
2023-02-19T17:05:32.539Z,78959.66
2023-02-19T17:10:34.028Z,78979.69
2023-02-19T17:15:35.469Z,78979.69
2023-02-19T17:20:36.895Z,78975.69
2023-02-19T17:25:38.435Z,78993.75
2023-02-19T17:30:40.472Z,79007.78
2023-02-19T17:35:44.642Z,79015.81
2023-02-19T17:40:46.189Z,79027.84
2023-02-19T17:45:47.952Z,79027.84
2023-02-19T17:50:50.264Z,79029.84
2023-02-19T17:55:51.739Z,79035.84
2023-02-19T18:00:53.481Z,79029.84
2023-02-19T18:05:55.123Z,79045.88
2023-02-19T18:10:56.605Z,79017.81
2023-02-19T18:15:58.086Z,79029.84
2023-02-19T18:20:59.585Z,78991.75
2023-02-19T18:26:01.332Z,79009.78
2023-02-19T18:31:03.110Z,79007.78
2023-02-19T18:36:10.503Z,79009.78
2023-02-19T18:41:13.863Z,79023.81
2023-02-19T18:46:16.644Z,79017.81
2023-02-19T18:51:18.262Z,79027.84
2023-02-19T18:56:19.724Z,79021.81
2023-02-19T19:01:21.326Z,79029.84
2023-02-19T19:06:22.760Z,79053.91
2023-02-19T19:11:25.775Z,79047.91
2023-02-19T19:16:28.767Z,79043.88
2023-02-19T19:21:31.420Z,79055.91
2023-02-19T19:26:34.056Z,79075.97
2023-02-19T19:31:36.391Z,79061.94
2023-02-19T19:36:38.010Z,79071.97
2023-02-19T19:41:39.527Z,79102.03
2023-02-19T19:46:45.534Z,79098.03
2023-02-19T19:51:47.405Z,79088.00
2023-02-19T19:56:50.871Z,79082.00
2023-02-19T20:01:54.787Z,79084.00
2023-02-19T20:06:58.522Z,79096.03
2023-02-19T20:12:00.032Z,79084.00
2023-02-19T20:17:01.566Z,79071.97
2023-02-19T20:22:03.049Z,79065.94
2023-02-19T20:27:04.725Z,79043.88
2023-02-19T20:32:06.348Z,79017.81
2023-02-19T20:37:07.878Z,79013.81
2023-02-19T20:42:09.384Z,79011.78
2023-02-19T20:47:10.978Z,78999.75
2023-02-19T20:52:16.337Z,79003.78
2023-02-19T20:57:17.752Z,78985.72
2023-02-19T21:02:22.227Z,78979.69
2023-02-19T21:07:25.562Z,78969.69
2023-02-19T21:12:27.074Z,78953.63
2023-02-19T21:17:28.624Z,78937.59
2023-02-19T21:22:30.102Z,78935.59
2023-02-19T21:27:31.523Z,78919.53
2023-02-19T21:32:33.071Z,78931.56
2023-02-19T21:37:34.516Z,78905.50
2023-02-19T21:42:35.954Z,78913.53
2023-02-19T21:47:37.382Z,78903.50
2023-02-19T21:52:38.839Z,78901.50
2023-02-19T21:57:40.717Z,78887.44
2023-02-19T22:02:42.515Z,78885.44
2023-02-19T22:07:44.055Z,78861.38
2023-02-19T22:12:45.585Z,78845.34
2023-02-19T22:17:47.081Z,78839.31
2023-02-19T22:22:49.770Z,78833.31
2023-02-19T22:27:51.193Z,78859.38
2023-02-19T22:32:52.775Z,78851.34
2023-02-19T22:37:54.243Z,78861.38
2023-02-19T22:42:55.706Z,78847.34
2023-02-19T22:47:57.219Z,78863.38
2023-02-19T22:52:59.156Z,78845.34
2023-02-19T22:58:00.698Z,78837.31
2023-02-19T23:03:02.569Z,78823.28
2023-02-19T23:08:04.281Z,78813.25
2023-02-19T23:13:05.708Z,78793.19
2023-02-19T23:18:08.394Z,78789.19
2023-02-19T23:23:10.447Z,78787.19
2023-02-19T23:28:11.916Z,78763.13
2023-02-19T23:33:13.678Z,78745.06
2023-02-19T23:38:15.151Z,78739.06
2023-02-19T23:43:16.702Z,78741.06
2023-02-19T23:48:18.101Z,78741.06
2023-02-19T23:53:19.723Z,78729.03
2023-02-19T23:58:21.237Z,78704.97
